Time;durP1;ratioP1;P1;durP2;ratioP2;P2;SDS_P1;SDS_P2;PMS_P1;PMS_P2;Temp;Humidity;BMP_temperature;BMP_pressure;BME280_temperature;BME280_humidity;BME280_pressure;Samples;Min_cycle;Max_cycle;Signal;HPM_P1;HPM_P2
2022/11/18 00:00:45;;;;;;;10.85;2.28;;;;;;;13.12;100.00;99835.97;10421771;28;96665;-77
2022/11/18 00:05:53;;;;;;;9.60;2.03;;;;;;;13.11;100.00;99837.72;10422689;28;96724;-77
2022/11/18 00:10:58;;;;;;;13.25;3.22;;;;;;;13.08;100.00;99840.50;10422884;28;96704;-77
2022/11/18 00:16:01;;;;;;;8.10;2.58;;;;;;;13.07;100.00;99837.97;10422415;28;97123;-77
2022/11/18 00:21:06;;;;;;;9.20;2.58;;;;;;;13.04;100.00;99841.59;10421234;27;96704;-77
2022/11/18 00:26:12;;;;;;;;;;;;;;;12.98;100.00;99844.53;10381279;28;96654;-77
2022/11/18 00:31:15;;;;;;;7.93;2.00;;;;;;;13.01;100.00;99846.97;10380620;28;96842;-77
2022/11/18 00:36:18;;;;;;;7.03;2.30;;;;;;;13.03;100.00;99861.75;10382255;28;96952;-77
2022/11/18 00:41:23;;;;;;;12.05;2.40;;;;;;;13.07;100.00;99857.19;10407848;28;96798;-77
2022/11/18 00:46:26;;;;;;;5.70;1.77;;;;;;;13.05;100.00;99854.63;10421664;28;96769;-77
2022/11/18 00:51:29;;;;;;;8.48;1.77;;;;;;;13.08;100.00;99852.78;10420571;28;96643;-77
2022/11/18 00:56:34;;;;;;;9.43;1.50;;;;;;;13.05;100.00;99846.75;10421476;28;96656;-77
2022/11/18 01:01:37;;;;;;;9.10;1.98;;;;;;;13.02;100.00;99859.19;10420995;28;96667;-77
2022/11/18 01:06:41;;;;;;;7.68;1.70;;;;;;;12.97;100.00;99866.44;10420938;28;96931;-77
2022/11/18 01:17:06;;;;;;;5.03;1.90;;;;;;;12.91;100.00;99872.84;10413539;28;96649;-77
2022/11/18 01:22:09;;;;;;;7.25;1.85;;;;;;;12.87;100.00;99879.97;10420799;28;96575;-77
2022/11/18 01:27:14;;;;;;;4.65;1.67;;;;;;;12.83;100.00;99881.03;10422103;28;96924;-77
2022/11/18 01:32:17;;;;;;;4.88;1.42;;;;;;;12.82;100.00;99879.34;10421923;27;96844;-77
2022/11/18 01:37:27;;;;;;;4.40;1.88;;;;;;;12.78;100.00;99876.91;10427619;28;97024;-77
2022/11/18 01:42:32;;;;;;;2.78;1.20;;;;;;;12.76;100.00;99866.50;10426337;28;96553;-77
2022/11/18 01:47:40;;;;;;;5.65;1.92;;;;;;;12.63;100.00;99860.13;10427398;28;96742;-77
2022/11/18 01:52:44;;;;;;;4.95;1.60;;;;;;;12.56;100.00;99866.56;10427297;28;96703;-77
2022/11/18 01:58:02;;;;;;;4.10;1.35;;;;;;;12.52;100.00;99863.25;10426967;28;96796;-77
2022/11/18 02:03:06;;;;;;;7.20;1.77;;;;;;;12.55;100.00;99863.09;10426681;28;97531;-77
2022/11/18 02:08:10;;;;;;;5.90;1.40;;;;;;;12.56;100.00;99870.06;10385372;28;96811;-77
2022/11/18 02:13:15;;;;;;;3.20;1.10;;;;;;;12.52;100.00;99871.09;10394912;28;96762;-77
2022/11/18 02:18:30;;;;;;;4.97;1.58;;;;;;;12.51;100.00;99874.69;10427191;28;96891;-77
2022/11/18 02:24:01;;;;;;;4.20;1.60;;;;;;;12.51;100.00;99885.16;10425703;28;96798;-77
2022/11/18 02:29:09;;;;;;;5.07;1.77;;;;;;;12.49;100.00;99893.09;10426202;28;96683;-77
2022/11/18 02:34:21;;;;;;;7.80;2.00;;;;;;;12.47;100.00;99905.44;10424531;28;96906;-77
2022/11/18 02:39:31;;;;;;;4.45;1.38;;;;;;;12.43;100.00;99909.09;10425654;28;96630;-77
2022/11/18 02:44:38;;;;;;;4.28;1.30;;;;;;;12.43;100.00;99903.84;10424500;27;96700;-77
2022/11/18 02:49:45;;;;;;;7.70;1.88;;;;;;;12.41;100.00;99905.69;10425466;28;96762;-77
2022/11/18 02:54:51;;;;;;;5.68;1.73;;;;;;;12.30;100.00;99908.81;10424979;28;96733;-77
2022/11/18 02:59:56;;;;;;;8.13;2.17;;;;;;;12.37;100.00;99912.00;10425121;28;96583;-77
2022/11/18 03:04:58;;;;;;;;;;;;;;;12.36;100.00;99912.91;10425240;28;96718;-77
2022/11/18 03:10:02;;;;;;;5.95;1.50;;;;;;;12.38;100.00;99911.06;10425949;28;96600;-77
2022/11/18 03:15:16;;;;;;;5.40;1.50;;;;;;;12.35;100.00;99908.59;10424463;27;96604;-77
2022/11/18 03:20:26;;;;;;;5.82;1.60;;;;;;;12.25;100.00;99916.03;10424452;28;96667;-77
2022/11/18 03:25:34;;;;;;;8.02;1.67;;;;;;;12.18;100.00;99911.97;10423550;28;97079;-77
2022/11/18 03:30:46;;;;;;;10.38;2.08;;;;;;;12.02;100.00;99917.00;10423596;28;96803;-77
2022/11/18 03:35:52;;;;;;;11.88;1.77;;;;;;;11.93;100.00;99920.03;10421897;28;97420;-77
2022/11/18 03:41:00;;;;;;;5.97;1.60;;;;;;;11.84;100.00;99925.69;10423495;28;96668;-77
2022/11/18 03:46:09;;;;;;;6.80;1.70;;;;;;;11.78;100.00;99925.94;10423490;28;96626;-77
2022/11/18 03:51:17;;;;;;;5.47;1.60;;;;;;;11.81;100.00;99915.31;10423461;28;96566;-77
2022/11/18 03:56:28;;;;;;;6.53;1.50;;;;;;;11.81;100.00;99931.03;10423317;27;97354;-77
2022/11/18 04:01:40;;;;;;;7.05;1.65;;;;;;;11.84;100.00;99926.53;10423644;28;96863;-77
2022/11/18 04:06:48;;;;;;;2.50;1.50;;;;;;;11.91;100.00;99942.84;10422816;28;96600;-77
2022/11/18 04:12:03;;;;;;;6.60;2.10;;;;;;;11.89;100.00;99968.25;10422837;28;96914;-77
2022/11/18 04:17:12;;;;;;;3.95;1.48;;;;;;;11.80;100.00;99973.88;10421686;28;97148;-77
2022/11/18 04:22:16;;;;;;;15.20;2.17;;;;;;;11.74;100.00;99973.22;10422272;28;96747;-77
2022/11/18 04:27:20;;;;;;;10.35;1.67;;;;;;;11.74;100.00;99982.84;10422457;28;96708;-77
2022/11/18 04:32:24;;;;;;;4.75;1.63;;;;;;;11.72;100.00;99984.66;10421752;28;96584;-77
2022/11/18 04:37:27;;;;;;;7.55;1.70;;;;;;;11.62;100.00;99984.19;10421778;28;96775;-77
2022/11/18 04:42:31;;;;;;;5.32;1.75;;;;;;;11.53;100.00;99992.41;10421735;28;96664;-77
2022/11/18 04:47:35;;;;;;;5.97;1.77;;;;;;;11.45;100.00;99991.88;10421399;28;96654;-77
2022/11/18 04:52:39;;;;;;;6.65;1.70;;;;;;;11.31;100.00;100011.59;10422209;28;96772;-77
2022/11/18 04:57:42;;;;;;;5.47;1.70;;;;;;;11.23;100.00;100008.41;10421141;28;96661;-77
2022/11/18 05:02:46;;;;;;;5.10;1.58;;;;;;;11.13;100.00;100017.50;10421078;28;96697;-77
2022/11/18 05:07:50;;;;;;;5.68;1.40;;;;;;;10.96;100.00;100021.63;10419464;28;98292;-77
2022/11/18 05:12:54;;;;;;;6.07;1.30;;;;;;;10.96;100.00;100021.63;10420479;28;96789;-77
2022/11/18 05:17:58;;;;;;;8.13;1.52;;;;;;;10.85;100.00;100023.78;10420985;28;96773;-77
2022/11/18 05:23:01;;;;;;;6.40;1.25;;;;;;;10.81;100.00;100032.66;10420728;28;96690;-77
2022/11/18 05:28:05;;;;;;;3.30;1.10;;;;;;;10.71;100.00;100031.28;10420520;28;96822;-77
2022/11/18 05:33:09;;;;;;;5.05;1.25;;;;;;;10.79;100.00;100039.69;10420199;28;96816;-77
2022/11/18 05:38:12;;;;;;;10.98;1.70;;;;;;;10.84;100.00;100037.75;10420626;28;96696;-77
2022/11/18 05:43:16;;;;;;;3.60;1.42;;;;;;;10.87;100.00;100042.03;10420760;28;96777;-77
2022/11/18 05:48:20;;;;;;;4.50;1.70;;;;;;;10.91;100.00;100049.72;10419856;28;97338;-77
2022/11/18 05:53:25;;;;;;;8.38;2.25;;;;;;;10.94;100.00;100054.81;10420058;28;96602;-77
2022/11/18 05:58:29;;;;;;;8.00;1.90;;;;;;;10.93;100.00;100058.38;10418841;28;96747;-77
2022/11/18 06:03:38;;;;;;;4.43;1.98;;;;;;;11.04;100.00;100071.03;10419606;28;97240;-77
2022/11/18 06:08:45;;;;;;;6.55;2.40;;;;;;;11.11;100.00;100076.91;10419556;28;96704;-77
2022/11/18 06:13:55;;;;;;;5.88;2.00;;;;;;;11.11;100.00;100082.97;10419084;28;96878;-77
2022/11/18 06:19:01;;;;;;;9.73;3.00;;;;;;;11.16;100.00;100095.91;10420336;27;97124;-77
2022/11/18 06:24:06;;;;;;;8.38;2.83;;;;;;;11.13;100.00;100102.09;10426068;28;96660;-77
2022/11/18 06:29:12;;;;;;;6.60;2.90;;;;;;;11.09;100.00;100125.84;10425851;28;96816;-77
2022/11/18 06:34:16;;;;;;;7.30;3.50;;;;;;;11.09;100.00;100125.84;10424725;28;96936;-77
2022/11/18 06:39:19;;;;;;;7.22;3.10;;;;;;;11.12;100.00;100136.16;10425474;28;96978;-77
2022/11/18 06:44:23;;;;;;;29.17;4.00;;;;;;;11.11;100.00;100144.94;10425169;28;96876;-77
2022/11/18 06:49:28;;;;;;;11.55;2.58;;;;;;;11.07;100.00;100156.41;10424812;28;96508;-77
2022/11/18 06:54:31;;;;;;;14.55;3.38;;;;;;;11.04;100.00;100157.38;10425185;28;96787;-77
2022/11/18 06:59:34;;;;;;;14.43;3.30;;;;;;;11.04;100.00;100164.41;10425007;28;96617;-77
2022/11/18 07:04:39;;;;;;;19.77;3.17;;;;;;;10.99;100.00;100178.47;10424953;28;96702;-77
2022/11/18 07:09:43;;;;;;;7.13;3.08;;;;;;;10.93;100.00;100183.94;10423716;28;96655;-77
2022/11/18 07:14:47;;;;;;;7.57;3.15;;;;;;;10.92;100.00;100192.69;10424553;28;97172;-77
2022/11/18 07:19:51;;;;;;;13.25;3.75;;;;;;;10.89;100.00;100199.78;10424510;28;96746;-77
2022/11/18 07:24:54;;;;;;;7.63;3.15;;;;;;;10.88;100.00;100198.94;10425893;28;97163;-77
2022/11/18 07:29:58;;;;;;;8.75;3.00;;;;;;;10.91;100.00;100209.31;10422872;28;96851;-77
2022/11/18 07:35:02;;;;;;;17.20;3.00;;;;;;;10.82;100.00;100217.44;10424062;28;96710;-77
2022/11/18 07:40:07;;;;;;;73.07;7.00;;;;;;;10.79;100.00;100231.50;10422780;28;96590;-77
2022/11/18 07:45:11;;;;;;;16.80;3.75;;;;;;;10.79;100.00;100241.06;10423594;28;96887;-77
2022/11/18 07:50:16;;;;;;;9.80;3.97;;;;;;;10.78;100.00;100247.22;10423985;28;96818;-77
2022/11/18 07:55:20;;;;;;;5.70;3.67;;;;;;;10.78;100.00;100252.47;10423211;28;96733;-77
2022/11/18 08:00:23;;;;;;;8.52;3.28;;;;;;;10.78;100.00;100255.09;10422847;28;96700;-77
2022/11/18 08:05:28;;;;;;;39.50;5.55;;;;;;;10.79;100.00;100270.72;10423004;28;96731;-77
2022/11/18 08:10:31;;;;;;;11.90;3.00;;;;;;;10.77;100.00;100269.06;10422935;28;96869;-77
2022/11/18 08:15:34;;;;;;;4.88;2.92;;;;;;;10.74;100.00;100270.03;10422867;28;96576;-77
2022/11/18 08:20:39;;;;;;;5.50;2.63;;;;;;;10.78;100.00;100274.25;10422194;28;96876;-77
2022/11/18 08:25:44;;;;;;;6.43;3.05;;;;;;;10.79;100.00;100280.31;10422589;28;96704;-77
2022/11/18 08:30:47;;;;;;;8.38;3.20;;;;;;;10.71;100.00;100284.97;10421265;28;96683;-77
2022/11/18 08:35:52;;;;;;;6.88;3.05;;;;;;;10.94;100.00;100295.50;10421941;28;97374;-77
2022/11/18 08:40:55;;;;;;;6.82;3.38;;;;;;;11.15;100.00;100304.41;10420003;27;96990;-77
2022/11/18 08:45:58;;;;;;;5.13;3.20;;;;;;;11.31;100.00;100317.91;10421601;28;97286;-77
2022/11/18 08:51:03;;;;;;;7.90;3.67;;;;;;;11.41;100.00;100328.03;10421393;28;96824;-77
2022/11/18 08:56:07;;;;;;;;;;;;;;;11.44;100.00;100336.66;10422072;28;96640;-77
2022/11/18 09:01:10;;;;;;;4.97;2.63;;;;;;;11.54;100.00;100342.44;10421228;28;96977;-77
2022/11/18 09:06:16;;;;;;;5.78;2.47;;;;;;;11.42;100.00;100342.84;10422093;28;96736;-77
2022/11/18 09:11:21;;;;;;;6.88;2.78;;;;;;;11.35;100.00;100357.91;10400851;28;96763;-77
2022/11/18 09:16:26;;;;;;;3.47;1.88;;;;;;;11.26;100.00;100361.66;10379244;28;96984;-77
2022/11/18 09:21:50;;;;;;;4.45;2.58;;;;;;;11.35;100.00;100363.16;10378068;28;96927;-77
2022/11/18 09:26:53;;;;;;;3.85;2.28;;;;;;;11.48;100.00;100368.81;10394466;28;96852;-77
2022/11/18 09:31:56;;;;;;;6.78;2.63;;;;;;;11.92;100.00;100366.44;10420498;28;96713;-77
2022/11/18 09:37:05;;;;;;;6.57;2.70;;;;;;;12.00;100.00;100366.13;10418102;28;97307;-77
2022/11/18 09:42:32;;;;;;;3.50;2.38;;;;;;;12.10;100.00;100357.88;10419867;28;97156;-77
2022/11/18 09:47:36;;;;;;;7.22;2.83;;;;;;;12.19;100.00;100366.31;10419913;28;97225;-77
2022/11/18 09:52:48;;;;;;;3.60;2.60;;;;;;;12.24;100.00;100367.00;10420758;27;96828;-77
2022/11/18 09:57:54;;;;;;;4.07;2.15;;;;;;;12.49;100.00;100374.81;10427955;28;96730;-77
2022/11/18 10:03:00;;;;;;;5.53;2.63;;;;;;;12.56;100.00;100371.06;10426593;28;96813;-77
2022/11/18 10:08:20;;;;;;;5.30;3.30;;;;;;;12.47;100.00;100372.25;10426900;28;96850;-77
2022/11/18 10:13:36;;;;;;;4.25;2.85;;;;;;;12.70;100.00;100373.16;10425854;28;96738;-77
2022/11/18 10:18:47;;;;;;;5.00;3.08;;;;;;;12.74;100.00;100374.72;10426735;28;96964;-77
2022/11/18 10:24:14;;;;;;;4.88;2.95;;;;;;;12.78;100.00;100376.31;10427122;28;97446;-77
2022/11/18 10:29:17;;;;;;;4.18;2.63;;;;;;;12.81;100.00;100376.19;10425914;28;96812;-77
2022/11/18 10:34:21;;;;;;;4.43;2.33;;;;;;;12.97;100.00;100386.97;10425514;28;96672;-77
2022/11/18 10:39:26;;;;;;;5.10;2.83;;;;;;;12.97;100.00;100378.25;10425178;28;96859;-77
2022/11/18 10:44:31;;;;;;;;;;;;;;;12.80;100.00;100369.22;10425828;28;96557;-77
2022/11/18 10:49:39;;;;;;;5.03;3.00;;;;;;;12.71;100.00;100364.34;10426462;28;96862;-77
2022/11/18 10:54:43;;;;;;;5.70;2.97;;;;;;;12.67;100.00;100373.25;10425333;28;96705;-77
2022/11/18 10:59:50;;;;;;;4.72;2.40;;;;;;;12.76;100.00;100365.03;10425087;28;96673;-77
2022/11/18 11:04:54;;;;;;;7.03;2.58;;;;;;;13.06;100.00;100364.75;10423243;27;96896;-77
2022/11/18 11:10:18;;;;;;;3.92;2.65;;;;;;;13.36;100.00;100356.50;10424606;28;96934;-77
2022/11/18 11:15:28;;;;;;;5.82;2.47;;;;;;;13.61;100.00;100357.19;10424865;28;96875;-77
2022/11/18 11:20:31;;;;;;;4.72;2.17;;;;;;;13.63;100.00;100359.75;10424398;28;96816;-77
2022/11/18 11:25:43;;;;;;;7.13;2.78;;;;;;;13.56;100.00;100361.78;10423827;28;96838;-77
2022/11/18 11:31:16;;;;;;;6.95;2.85;;;;;;;13.68;100.00;100343.78;10423771;28;97083;-77
2022/11/18 11:36:32;;;;;;;8.88;3.00;;;;;;;13.65;100.00;100352.66;10424117;28;96620;-77
2022/11/18 11:41:46;;;;;;;6.65;2.80;;;;;;;13.71;100.00;100347.16;10423398;28;96818;-77
2022/11/18 11:52:31;;;;;;;8.85;3.65;;;;;;;13.67;100.00;100326.31;10391788;28;97010;-77
2022/11/18 11:57:50;;;;;;;9.83;3.63;;;;;;;13.63;100.00;100329.06;10422258;28;96805;-77
2022/11/18 12:03:05;;;;;;;8.55;3.30;;;;;;;13.72;100.00;100324.34;10422613;28;97249;-77
2022/11/18 12:08:15;;;;;;;6.32;3.10;;;;;;;13.71;100.00;100333.16;10422658;28;96858;-77
2022/11/18 12:13:36;;;;;;;9.82;3.33;;;;;;;13.78;100.00;100331.97;10422870;28;96629;-77
2022/11/18 12:18:43;;;;;;;6.72;2.28;;;;;;;13.81;100.00;100303.78;10422324;28;96752;-77
2022/11/18 12:24:29;;;;;;;3.83;2.13;;;;;;;13.76;100.00;100308.38;10422376;28;96638;-77
2022/11/18 12:29:42;;;;;;;3.53;1.80;;;;;;;13.81;100.00;100295.00;10422277;28;96764;-77
2022/11/18 12:34:45;;;;;;;6.43;2.53;;;;;;;14.00;100.00;100279.25;10420554;28;96798;-77
2022/11/18 12:39:57;;;;;;;8.40;2.75;;;;;;;14.22;100.00;100263.34;10422027;28;96940;-77
2022/11/18 12:45:40;;;;;;;7.95;3.10;;;;;;;14.30;100.00;100257.75;10421723;28;96870;-77
2022/11/18 12:50:50;;;;;;;4.63;2.70;;;;;;;14.53;100.00;100261.94;10420347;28;96690;-77
2022/11/18 12:55:57;;;;;;;5.53;2.45;;;;;;;14.37;100.00;100254.78;10421399;28;96803;-77
2022/11/18 13:01:11;;;;;;;4.97;2.10;;;;;;;14.17;100.00;100263.56;10420837;28;97115;-77
2022/11/18 13:06:23;;;;;;;4.83;1.93;;;;;;;14.04;100.00;100270.31;10420767;28;97269;-77
2022/11/18 13:11:46;;;;;;;5.00;2.50;;;;;;;14.05;100.00;100268.53;10420943;28;96985;-77
2022/11/18 13:27:56;;;;;;;4.15;1.40;;;;;;;13.28;100.00;100296.44;10422251;27;96723;-77
2022/11/18 13:33:01;;;;;;;6.15;2.35;;;;;;;12.96;100.00;100300.41;10427829;28;96574;-77
2022/11/18 13:38:07;;;;;;;6.93;2.90;;;;;;;12.86;100.00;100307.78;10427679;28;96924;-77
2022/11/18 13:43:11;;;;;;;8.48;4.15;;;;;;;12.64;100.00;100328.78;10426062;28;96647;-77
2022/11/18 13:48:16;;;;;;;11.80;3.50;;;;;;;12.58;100.00;100336.88;10427937;28;96785;-77
2022/11/18 13:53:26;;;;;;;;;;;;;;;12.49;100.00;100344.19;10428144;28;96927;-77
2022/11/18 13:58:37;;;;;;;6.18;3.40;;;;;;;12.46;100.00;100344.31;10427368;28;96690;-77
2022/11/18 14:04:03;;;;;;;8.82;3.80;;;;;;;12.94;100.00;100344.25;10426652;28;96712;-77
2022/11/18 14:09:17;;;;;;;11.45;5.13;;;;;;;14.90;100.00;100347.00;10427001;28;96793;-77
2022/11/18 14:14:29;;;;;;;10.32;5.95;;;;;;;16.33;100.00;100325.63;10426242;28;96850;-77
2022/11/18 14:19:35;;;;;;;8.57;4.72;;;;;;;17.36;100.00;100315.38;10427203;28;96886;-77
2022/11/18 14:24:38;;;;;;;7.45;4.28;;;;;;;17.11;100.00;100305.41;10426259;28;96664;-77
2022/11/18 14:29:49;;;;;;;6.45;4.38;;;;;;;16.66;100.00;100316.78;10426649;28;97129;-77
2022/11/18 14:34:59;;;;;;;8.45;5.03;;;;;;;16.60;100.00;100310.91;10424662;28;96964;-77
2022/11/18 14:40:02;;;;;;;10.98;5.30;;;;;;;15.75;100.00;100306.72;10424362;28;97262;-77
2022/11/18 14:45:06;;;;;;;10.93;6.90;;;;;;;16.28;100.00;100317.16;10425357;28;96824;-77
2022/11/18 14:50:15;;;;;;;13.23;8.43;;;;;;;17.08;100.00;100312.69;10425467;28;96627;-77
2022/11/18 14:55:19;;;;;;;12.52;7.22;;;;;;;17.59;100.00;100305.22;10425555;28;96535;-78
2022/11/18 15:00:22;;;;;;;11.77;8.43;;;;;;;17.81;100.00;100294.19;10425062;28;96850;-78
2022/11/18 15:05:27;;;;;;;14.48;9.70;;;;;;;17.91;100.00;100286.59;10424836;28;96740;-77
2022/11/18 15:10:30;;;;;;;12.60;7.75;;;;;;;17.83;100.00;100292.31;10424987;28;96894;-77
2022/11/18 15:15:33;;;;;;;9.20;5.03;;;;;;;16.88;100.00;100288.25;10424724;28;96790;-77
2022/11/18 15:20:38;;;;;;;5.72;4.20;;;;;;;15.61;100.00;100299.53;10424597;28;97864;-77
2022/11/18 15:25:41;;;;;;;8.48;5.53;;;;;;;14.71;100.00;100324.22;10423124;28;97105;-77
2022/11/18 15:30:44;;;;;;;8.27;5.78;;;;;;;14.25;100.00;100346.53;10423670;28;96760;-77
2022/11/18 15:35:49;;;;;;;8.80;5.45;;;;;;;13.82;100.00;100354.56;10408345;28;96670;-77
2022/11/18 15:40:52;;;;;;;;;;;;;;;13.98;100.00;100362.63;10398425;28;96665;-77
2022/11/18 15:45:57;;;;;;;12.85;6.95;;;;;;;15.01;100.00;100363.16;10423855;28;96672;-77
2022/11/18 15:51:01;;;;;;;13.20;7.82;;;;;;;14.62;100.00;100372.00;10423896;27;96619;-77
2022/11/18 15:56:23;;;;;;;12.00;7.78;;;;;;;14.77;100.00;100386.25;10423186;28;96830;-77
2022/11/18 16:01:28;;;;;;;11.90;6.93;;;;;;;14.51;100.00;100395.34;10423677;28;96782;-77
2022/11/18 16:06:33;;;;;;;7.80;3.67;;;;;;;14.27;100.00;100392.88;10422794;28;97241;-77
2022/11/18 16:16:57;;;;;;;7.57;3.95;;;;;;;13.82;100.00;100417.63;10421764;28;96893;-77
2022/11/18 16:22:02;;;;;;;9.20;3.10;;;;;;;13.74;100.00;100415.34;10422359;28;96633;-77
2022/11/18 16:27:05;;;;;;;6.47;3.20;;;;;;;13.77;100.00;100422.22;10422270;28;96791;-77
2022/11/18 16:32:13;;;;;;;4.45;2.25;;;;;;;13.72;100.00;100437.34;10422084;28;96649;-77
2022/11/18 16:37:18;;;;;;;5.70;2.80;;;;;;;13.43;100.00;100434.16;10422245;28;96817;-77
2022/11/18 16:42:21;;;;;;;8.13;2.47;;;;;;;13.26;100.00;100455.84;10421241;28;97389;-77
2022/11/18 16:47:25;;;;;;;7.80;3.13;;;;;;;13.17;100.00;100467.56;10421694;28;97235;-77
2022/11/18 16:52:30;;;;;;;5.43;2.75;;;;;;;12.93;100.00;100484.28;10422635;28;97133;-77
2022/11/18 16:57:33;;;;;;;5.38;2.67;;;;;;;12.73;100.00;100504.19;10421803;28;96822;-77
2022/11/18 17:02:36;;;;;;;4.60;2.38;;;;;;;12.63;100.00;100508.06;10420095;28;97139;-77
2022/11/18 17:07:41;;;;;;;4.95;2.58;;;;;;;12.62;100.00;100516.88;10419999;28;96677;-77
2022/11/18 17:12:44;;;;;;;8.00;3.10;;;;;;;12.53;100.00;100514.56;10421134;28;96732;-77
2022/11/18 17:17:47;;;;;;;9.65;4.00;;;;;;;12.42;100.00;100536.81;10421058;28;96738;-77
2022/11/18 17:22:53;;;;;;;7.53;3.92;;;;;;;12.30;100.00;100547.69;10420675;28;96783;-77
2022/11/18 17:27:56;;;;;;;8.85;3.75;;;;;;;12.28;100.00;100554.75;10420704;28;96992;-77
2022/11/18 17:33:00;;;;;;;12.85;4.80;;;;;;;12.31;100.00;100552.03;10420398;28;96728;-77
2022/11/18 17:38:04;;;;;;;12.55;4.57;;;;;;;12.31;100.00;100565.16;10420268;28;97154;-77
2022/11/18 17:43:08;;;;;;;7.95;5.22;;;;;;;12.24;100.00;100559.25;10378769;28;96760;-77
2022/11/18 17:48:11;;;;;;;9.73;5.13;;;;;;;12.16;100.00;100573.53;10378743;28;96577;-77
2022/11/18 17:53:16;;;;;;;9.85;5.32;;;;;;;11.98;100.00;100581.09;10378634;28;96706;-77
2022/11/18 17:58:19;;;;;;;11.77;5.70;;;;;;;11.80;100.00;100579.06;10405136;28;97006;-77
2022/11/18 18:03:23;;;;;;;12.70;6.32;;;;;;;11.67;100.00;100574.22;10419487;28;96608;-77
2022/11/18 18:08:27;;;;;;;13.15;5.57;;;;;;;11.54;100.00;100584.22;10419346;28;96758;-77
2022/11/18 18:18:51;;;;;;;12.25;6.88;;;;;;;11.23;100.00;100605.19;10426674;28;98142;-76
2022/11/18 18:23:56;;;;;;;12.32;6.85;;;;;;;11.17;100.00;100605.38;10426638;28;96643;-77
2022/11/18 18:29:00;;;;;;;13.40;6.60;;;;;;;11.13;100.00;100614.22;10426464;28;96626;-77
2022/11/18 18:34:04;;;;;;;13.40;7.17;;;;;;;11.05;100.00;100606.59;10426845;28;96612;-77
2022/11/18 18:39:09;;;;;;;15.38;7.82;;;;;;;10.92;100.00;100599.97;10424218;28;96972;-77
2022/11/18 18:44:12;;;;;;;15.30;8.80;;;;;;;10.82;100.00;100601.13;10425666;28;96862;-77
2022/11/18 18:49:22;;;;;;;15.63;8.90;;;;;;;10.75;100.00;100603.06;10424687;28;97009;-77
2022/11/18 18:54:27;;;;;;;11.73;6.00;;;;;;;10.65;100.00;100605.03;10425239;28;96794;-77
2022/11/18 18:59:32;;;;;;;13.63;7.95;;;;;;;10.58;100.00;100599.16;10425381;28;96893;-77
2022/11/18 19:04:35;;;;;;;12.45;6.57;;;;;;;10.53;100.00;100602.75;10425001;28;97153;-77
2022/11/18 19:09:40;;;;;;;14.30;7.43;;;;;;;10.37;100.00;100613.63;10425086;28;96741;-77
2022/11/18 19:14:43;;;;;;;13.65;7.50;;;;;;;10.33;100.00;100617.22;10425318;28;96913;-77
2022/11/18 19:25:09;;;;;;;14.93;7.82;;;;;;;10.27;100.00;100626.94;10424432;27;98463;-77
2022/11/18 19:30:13;;;;;;;15.55;7.47;;;;;;;10.23;100.00;100634.91;10424689;28;97040;-77
2022/11/18 19:35:17;;;;;;;13.35;8.52;;;;;;;10.24;100.00;100626.13;10423968;28;96886;-76
2022/11/18 19:40:21;;;;;;;15.07;8.13;;;;;;;10.29;100.00;100636.50;10422747;28;96864;-77
2022/11/18 19:45:24;;;;;;;14.32;8.98;;;;;;;10.34;100.00;100644.19;10423344;28;96973;-76
2022/11/18 19:50:28;;;;;;;14.05;8.18;;;;;;;10.33;100.00;100643.34;10423840;28;96856;-77
2022/11/18 19:55:32;;;;;;;17.63;10.00;;;;;;;10.36;100.00;100652.88;10423075;28;96678;-77
2022/11/18 20:00:35;;;;;;;19.40;11.27;;;;;;;10.36;100.00;100663.34;10422501;28;96746;-77
2022/11/18 20:05:53;;;;;;;18.25;10.20;;;;;;;10.31;100.00;100666.06;10422565;28;96844;-77
2022/11/18 20:11:01;;;;;;;14.40;9.15;;;;;;;10.32;100.00;100670.41;10422768;28;97025;-77
2022/11/18 20:16:14;;;;;;;17.60;9.65;;;;;;;10.33;100.00;100669.50;10381809;28;96701;-77
2022/11/18 20:21:19;;;;;;;16.02;9.68;;;;;;;10.33;100.00;100674.72;10381098;28;96746;-77
2022/11/18 20:26:24;;;;;;;;;;;;;;;10.21;100.00;100677.63;10381349;28;97079;-77
2022/11/18 20:31:28;;;;;;;20.47;9.30;;;;;;;10.21;100.00;100680.25;10408821;28;96715;-77
2022/11/18 20:36:34;;;;;;;18.13;9.02;;;;;;;10.12;100.00;100686.53;10421770;28;96914;-77
2022/11/18 20:41:39;;;;;;;17.52;8.98;;;;;;;10.13;100.00;100690.88;10421247;28;96716;-77
2022/11/18 20:46:42;;;;;;;17.02;10.02;;;;;;;10.09;100.00;100702.28;10421574;28;96573;-77
2022/11/18 20:51:45;;;;;;;19.27;9.82;;;;;;;10.07;100.00;100698.84;10421354;28;97000;-77
2022/11/18 20:56:49;;;;;;;14.68;9.05;;;;;;;10.03;100.00;100702.44;10421653;28;96730;-76
2022/11/18 21:01:53;;;;;;;16.00;9.13;;;;;;;10.02;100.00;100691.09;10421163;28;96888;-77
2022/11/18 21:06:59;;;;;;;16.23;8.82;;;;;;;10.05;100.00;100664.91;10421124;28;96857;-76
2022/11/18 21:12:04;;;;;;;12.90;8.88;;;;;;;10.05;100.00;100664.06;10421194;28;96685;-77
2022/11/18 21:17:07;;;;;;;14.95;8.80;;;;;;;10.00;100.00;100673.75;10421223;28;96934;-77
2022/11/18 21:22:10;;;;;;;13.80;8.60;;;;;;;9.94;100.00;100685.22;10419576;28;96665;-77
2022/11/18 21:27:15;;;;;;;14.80;9.30;;;;;;;9.98;100.00;100693.84;10420681;28;96528;-77
2022/11/18 21:32:18;;;;;;;17.63;9.60;;;;;;;9.90;100.00;100696.63;10420706;28;96987;-77
2022/11/18 21:37:22;;;;;;;17.73;8.93;;;;;;;9.84;100.00;100689.78;10413370;28;96712;-77
2022/11/18 21:42:26;;;;;;;17.00;9.57;;;;;;;9.80;100.00;100669.84;10420132;28;96806;-77
2022/11/18 21:47:30;;;;;;;17.23;9.13;;;;;;;9.81;100.00;100670.72;10420646;28;96663;-77
2022/11/18 21:52:33;;;;;;;16.75;9.82;;;;;;;9.78;100.00;100673.38;10426897;27;96613;-77
2022/11/18 21:57:40;;;;;;;16.70;9.40;;;;;;;9.76;100.00;100668.19;10428171;28;97160;-76
2022/11/18 22:02:44;;;;;;;15.70;10.52;;;;;;;9.78;100.00;100689.91;10426668;28;96663;-77
2022/11/18 22:07:47;;;;;;;15.10;10.02;;;;;;;9.77;100.00;100672.53;10426765;28;96756;-77
2022/11/18 22:12:51;;;;;;;19.45;10.70;;;;;;;9.80;100.00;100682.91;10425554;28;96728;-77
2022/11/18 22:17:54;;;;;;;18.17;11.73;;;;;;;9.88;100.00;100687.09;10426212;28;96635;-76
2022/11/18 22:22:58;;;;;;;16.52;11.25;;;;;;;9.85;100.00;100683.69;10425482;28;96693;-77
2022/11/18 22:28:03;;;;;;;18.90;12.90;;;;;;;9.88;100.00;100666.22;10425346;28;96689;-77
2022/11/18 22:33:07;;;;;;;19.83;12.27;;;;;;;9.88;100.00;100681.88;10425776;28;96747;-76
2022/11/18 22:38:10;;;;;;;25.02;14.20;;;;;;;9.90;100.00;100680.09;10425442;28;97052;-77
2022/11/18 22:43:14;;;;;;;26.92;16.70;;;;;;;9.87;100.00;100670.59;10424484;28;96700;-76
2022/11/18 22:48:17;;;;;;;21.58;14.20;;;;;;;9.86;100.00;100682.75;10425400;28;98015;-77
2022/11/18 22:53:21;;;;;;;23.35;14.90;;;;;;;9.90;100.00;100667.88;10425074;28;97201;-77
2022/11/18 22:58:25;;;;;;;25.38;15.10;;;;;;;9.96;100.00;100674.75;10424985;28;96544;-77
2022/11/18 23:03:29;;;;;;;27.60;15.07;;;;;;;9.89;100.00;100666.19;10421911;27;96900;-77
2022/11/18 23:08:34;;;;;;;23.35;14.77;;;;;;;9.87;100.00;100675.81;10424683;28;96611;-77
2022/11/18 23:14:03;;;;;;;27.02;16.60;;;;;;;9.82;100.00;100672.44;10424119;28;96809;-77
2022/11/18 23:19:08;;;;;;;24.90;15.30;;;;;;;9.77;100.00;100669.91;10424157;28;97465;-77
2022/11/18 23:24:13;;;;;;;24.13;15.65;;;;;;;9.69;100.00;100692.72;10423828;28;96710;-77
2022/11/18 23:29:17;;;;;;;25.33;16.50;;;;;;;9.64;100.00;100700.63;10423972;28;96620;-76
2022/11/18 23:34:21;;;;;;;24.00;15.07;;;;;;;9.61;100.00;100711.16;10423789;28;96663;-77
2022/11/18 23:39:24;;;;;;;25.27;14.95;;;;;;;9.53;100.00;100720.06;10423887;28;97253;-76
2022/11/18 23:44:51;;;;;;;23.60;14.55;;;;;;;9.44;100.00;100723.72;10423146;28;96818;-76
2022/11/18 23:49:55;;;;;;;27.67;14.50;;;;;;;9.37;100.00;100735.13;10423596;28;97429;-77